Observation data for Dimmitt on 07/11/2018      Previous  Date       Current Mesonet Observations  Soil Data  Daily Summary Page  Observations in Plain Language
KDMS 110500Z 18008KT 23/15 A3017 RMK A01 T02270147  RH  063%=      5-min Rain = 0
KDMS 110505Z 17008KT 23/15 A3018 RMK A01 T02250147  RH  064%=      5-min Rain = 0
KDMS 110510Z 18008KT 22/15 A3018 RMK A01 T02240147  RH  065%=      5-min Rain = 0
KDMS 110515Z 18008KT 22/15 A3018 RMK A01 T02230147  RH  065%=      5-min Rain = 0
KDMS 110520Z 19008KT 22/15 A3017 RMK A01 T02210147  RH  065%=      5-min Rain = 0
KDMS 110525Z 19008KT 22/15 A3017 RMK A01 T02200148  RH  066%=      5-min Rain = 0
KDMS 110530Z 19008KT 22/15 A3017 RMK A01 T02210148  RH  066%=      5-min Rain = 0
KDMS 110535Z 19008KT 22/15 A3017 RMK A01 T02240149  RH  065%=      5-min Rain = 0
KDMS 110540Z 19009KT 23/15 A3017 RMK A01 T02260150  RH  065%=      5-min Rain = 0
KDMS 110545Z 19008KT 23/15 A3017 RMK A01 T02250151  RH  066%=      5-min Rain = 0
KDMS 110550Z 19008KT 22/15 A3017 RMK A01 T02240151  RH  066%=      5-min Rain = 0
KDMS 110555Z 20008KT 22/15 A3017 RMK A01 T02230151  RH  067%=      5-min Rain = 0
KDMS 110600Z 20008KT 22/15 A3017 RMK A01 T02220150  RH  067%=      5-min Rain = 0
KDMS 110605Z 20007KT 22/15 A3018 RMK A01 T02220150  RH  066%=      5-min Rain = 0
KDMS 110610Z 20007KT 22/15 A3018 RMK A01 T02240149  RH  066%=      5-min Rain = 0
KDMS 110615Z 20007KT 22/15 A3018 RMK A01 T02240150  RH  066%=      5-min Rain = 0
KDMS 110620Z 20008KT 22/15 A3018 RMK A01 T02230150  RH  066%=      5-min Rain = 0
KDMS 110625Z 20007KT 22/15 A3018 RMK A01 T02230150  RH  066%=      5-min Rain = 0
KDMS 110630Z 20008KT 22/15 A3018 RMK A01 T02230150  RH  066%=      5-min Rain = 0
KDMS 110635Z 20007KT 22/15 A3018 RMK A01 T02210149  RH  067%=      5-min Rain = 0
KDMS 110640Z 20008KT 22/15 A3018 RMK A01 T02190149  RH  067%=      5-min Rain = 0
KDMS 110645Z 20008KT 22/15 A3018 RMK A01 T02200150  RH  067%=      5-min Rain = 0
KDMS 110650Z 19008KT 22/15 A3018 RMK A01 T02160149  RH  068%=      5-min Rain = 0
KDMS 110655Z 19008KT 22/15 A3018 RMK A01 T02150149  RH  069%=      5-min Rain = 0
KDMS 110700Z 19007KT 21/15 A3018 RMK A01 T02140148  RH  069%=      5-min Rain = 0
KDMS 110705Z 20007KT 21/15 A3018 RMK A01 T02110148  RH  070%=      5-min Rain = 0
KDMS 110710Z 20007KT 21/15 A3018 RMK A01 T02120148  RH  070%=      5-min Rain = 0
KDMS 110715Z 19006KT 21/15 A3018 RMK A01 T02110148  RH  070%=      5-min Rain = 0
KDMS 110720Z 19006KT 21/15 A3018 RMK A01 T02080148  RH  071%=      5-min Rain = 0
KDMS 110725Z 19006KT 21/15 A3018 RMK A01 T02070148  RH  072%=      5-min Rain = 0
KDMS 110730Z 18006KT 21/15 A3018 RMK A01 T02050148  RH  073%=      5-min Rain = 0
KDMS 110735Z 19007KT 20/15 A3018 RMK A01 T02040148  RH  074%=      5-min Rain = 0
KDMS 110740Z 18007KT 20/15 A3018 RMK A01 T02020147  RH  074%=      5-min Rain = 0
KDMS 110745Z 18006KT 20/15 A3018 RMK A01 T02000147  RH  075%=      5-min Rain = 0
KDMS 110750Z 19006KT 20/15 A3018 RMK A01 T01990146  RH  075%=      5-min Rain = 0
KDMS 110755Z 19006KT 20/15 A3018 RMK A01 T01980147  RH  076%=      5-min Rain = 0
KDMS 110800Z 18007KT 20/15 A3018 RMK A01 T01980147  RH  076%=      5-min Rain = 0
KDMS 110805Z 18007KT 20/15 A3018 RMK A01 T01980147  RH  076%=      5-min Rain = 0
KDMS 110810Z 18007KT 20/15 A3018 RMK A01 T01980148  RH  076%=      5-min Rain = 0
KDMS 110815Z 18006KT 20/15 A3017 RMK A01 T01960147  RH  076%=      5-min Rain = 0
KDMS 110820Z 18006KT 19/15 A3017 RMK A01 T01940147  RH  077%=      5-min Rain = 0
KDMS 110825Z 18007KT 19/15 A3017 RMK A01 T01940147  RH  078%=      5-min Rain = 0
KDMS 110830Z 18007KT 20/15 A3017 RMK A01 T01950148  RH  078%=      5-min Rain = 0
KDMS 110835Z 18007KT 19/15 A3017 RMK A01 T01940148  RH  078%=      5-min Rain = 0
KDMS 110840Z 18007KT 19/15 A3017 RMK A01 T01940148  RH  078%=      5-min Rain = 0
KDMS 110845Z 18008KT 19/15 A3017 RMK A01 T01930148  RH  078%=      5-min Rain = 0
KDMS 110850Z 19008KT 19/15 A3017 RMK A01 T01930149  RH  079%=      5-min Rain = 0
KDMS 110855Z 19008KT 19/15 A3017 RMK A01 T01940149  RH  079%=      5-min Rain = 0
KDMS 110900Z 19008KT 19/15 A3017 RMK A01 T01930149  RH  079%=      5-min Rain = 0
KDMS 110905Z 19008KT 19/15 A3017 RMK A01 T01930149  RH  079%=      5-min Rain = 0
KDMS 110910Z 19008KT 19/15 A3017 RMK A01 T01930149  RH  079%=      5-min Rain = 0
KDMS 110915Z 19007KT 19/15 A3017 RMK A01 T01930149  RH  079%=      5-min Rain = 0
KDMS 110920Z 19006KT 19/15 A3017 RMK A01 T01930149  RH  079%=      5-min Rain = 0
KDMS 110925Z 19006KT 19/15 A3017 RMK A01 T01940149  RH  078%=      5-min Rain = 0
KDMS 110930Z 18006KT 19/15 A3017 RMK A01 T01920148  RH  079%=      5-min Rain = 0
KDMS 110935Z 18005KT 19/15 A3017 RMK A01 T01910147  RH  079%=      5-min Rain = 0
KDMS 110940Z 18005KT 19/15 A3017 RMK A01 T01900147  RH  080%=      5-min Rain = 0
KDMS 110945Z 17004KT 19/15 A3017 RMK A01 T01890147  RH  080%=      5-min Rain = 0
KDMS 110950Z 16004KT 19/15 A3017 RMK A01 T01890147  RH  080%=      5-min Rain = 0
KDMS 110955Z 16005KT 19/15 A3016 RMK A01 T01880146  RH  080%=      5-min Rain = 0
KDMS 111000Z 16005KT 19/15 A3016 RMK A01 T01880146  RH  080%=      5-min Rain = 0
KDMS 111005Z 16005KT 19/15 A3016 RMK A01 T01880146  RH  080%=      5-min Rain = 0
KDMS 111010Z 17006KT 19/15 A3016 RMK A01 T01860145  RH  080%=      5-min Rain = 0
KDMS 111015Z 18006KT 19/15 A3016 RMK A01 T01850145  RH  081%=      5-min Rain = 0
KDMS 111020Z 17007KT 18/15 A3016 RMK A01 T01830145  RH  082%=      5-min Rain = 0
KDMS 111025Z 17007KT 18/15 A3016 RMK A01 T01820145  RH  082%=      5-min Rain = 0
KDMS 111030Z 17006KT 18/15 A3016 RMK A01 T01820145  RH  083%=      5-min Rain = 0
KDMS 111035Z 18006KT 18/15 A3016 RMK A01 T01810145  RH  083%=      5-min Rain = 0
KDMS 111040Z 18006KT 18/15 A3016 RMK A01 T01820147  RH  083%=      5-min Rain = 0
KDMS 111045Z 18007KT 18/15 A3016 RMK A01 T01830148  RH  083%=      5-min Rain = 0
KDMS 111050Z 18008KT 19/15 A3016 RMK A01 T01860149  RH  083%=      5-min Rain = 0
KDMS 111055Z 19008KT 19/15 A3016 RMK A01 T01870149  RH  082%=      5-min Rain = 0
KDMS 111100Z 19008KT 19/15 A3016 RMK A01 T01870149  RH  082%=      5-min Rain = 0
KDMS 111105Z 19008KT 19/15 A3016 RMK A01 T01870150  RH  082%=      5-min Rain = 0
KDMS 111110Z 19008KT 19/15 A3016 RMK A01 T01890150  RH  081%=      5-min Rain = 0
KDMS 111115Z 19007KT 19/15 A3016 RMK A01 T01890150  RH  081%=      5-min Rain = 0
KDMS 111120Z 20007KT 19/15 A3016 RMK A01 T01900150  RH  082%=      5-min Rain = 0
KDMS 111125Z 19009KT 19/15 A3016 RMK A01 T01910150  RH  081%=      5-min Rain = 0
KDMS 111130Z 19009KT 19/15 A3016 RMK A01 T01910150  RH  081%=      5-min Rain = 0
KDMS 111135Z 19009KT 19/15 A3016 RMK A01 T01910150  RH  081%=      5-min Rain = 0
KDMS 111140Z 19009KT 19/15 A3016 RMK A01 T01910150  RH  081%=      5-min Rain = 0
KDMS 111145Z 19008KT 19/15 A3017 RMK A01 T01900150  RH  081%=      5-min Rain = 0
KDMS 111150Z 19008KT 19/15 A3017 RMK A01 T01890149  RH  081%=      5-min Rain = 0
KDMS 111155Z 19008KT 19/15 A3017 RMK A01 T01880149  RH  082%=      5-min Rain = 0
KDMS 111200Z 20008KT 19/15 A3017 RMK A01 T01880150  RH  082%=      5-min Rain = 0
KDMS 111205Z 20008KT 19/15 A3017 RMK A01 T01880150  RH  082%=      5-min Rain = 0
KDMS 111210Z 20009KT 19/15 A3017 RMK A01 T01910152  RH  082%=      5-min Rain = 0
KDMS 111215Z 20007KT 19/15 A3017 RMK A01 T01930153  RH  081%=      5-min Rain = 0
KDMS 111220Z 20008KT 19/15 A3017 RMK A01 T01940153  RH  081%=      5-min Rain = 0
KDMS 111225Z 20007KT 20/15 A3017 RMK A01 T01950153  RH  080%=      5-min Rain = 0
KDMS 111230Z 20006KT 20/15 A3017 RMK A01 T01950152  RH  080%=      5-min Rain = 0
KDMS 111235Z 19005KT 20/15 A3017 RMK A01 T01950153  RH  080%=      5-min Rain = 0
KDMS 111240Z 19006KT 20/15 A3017 RMK A01 T01980154  RH  079%=      5-min Rain = 0
KDMS 111245Z 19006KT 20/16 A3017 RMK A01 T02010155  RH  078%=      5-min Rain = 0
KDMS 111250Z 19007KT 20/16 A3017 RMK A01 T02030156  RH  078%=      5-min Rain = 0
KDMS 111255Z 19008KT 21/16 A3017 RMK A01 T02060156  RH  077%=      5-min Rain = 0
KDMS 111300Z 19008KT 21/16 A3017 RMK A01 T02080157  RH  076%=      5-min Rain = 0
KDMS 111305Z 20008KT 21/16 A3017 RMK A01 T02100158  RH  076%=      5-min Rain = 0
KDMS 111310Z 19009KT 21/16 A3017 RMK A01 T02140160  RH  075%=      5-min Rain = 0
KDMS 111315Z 19010KT 22/16 A3017 RMK A01 T02170160  RH  073%=      5-min Rain = 0
KDMS 111320Z 20010KT 22/16 A3017 RMK A01 T02220161  RH  072%=      5-min Rain = 0
KDMS 111325Z 19010KT 23/16 A3017 RMK A01 T02280160  RH  069%=      5-min Rain = 0
KDMS 111330Z 20011KT 23/16 A3017 RMK A01 T02330158  RH  066%=      5-min Rain = 0
KDMS 111335Z 20012KT 24/15 A3017 RMK A01 T02350153  RH  063%=      5-min Rain = 0
KDMS 111340Z 19011KT 23/15 A3017 RMK A01 T02330152  RH  063%=      5-min Rain = 0
KDMS 111345Z 19012KT 23/15 A3017 RMK A01 T02310152  RH  064%=      5-min Rain = 0
KDMS 111350Z 20010KT 23/15 A3017 RMK A01 T02290152  RH  065%=      5-min Rain = 0
KDMS 111355Z 20010KT 23/15 A3017 RMK A01 T02280149  RH  064%=      5-min Rain = 0
KDMS 111400Z 20009KT 23/15 A3018 RMK A01 T02300148  RH  062%=      5-min Rain = 0
KDMS 111405Z 20010KT 23/15 A3018 RMK A01 T02320148  RH  062%=      5-min Rain = 0
KDMS 111410Z 19010KT 23/15 A3018 RMK A01 T02330147  RH  061%=      5-min Rain = 0
KDMS 111415Z 20011KT 23/15 A3018 RMK A01 T02340146  RH  060%=      5-min Rain = 0
KDMS 111420Z 20011KT 24/15 A3018 RMK A01 T02350145  RH  060%=      5-min Rain = 0
KDMS 111425Z 19012KT 24/14 A3018 RMK A01 T02370143  RH  058%=      5-min Rain = 0
KDMS 111430Z 20012KT 24/14 A3018 RMK A01 T02400143  RH  057%=      5-min Rain = 0
KDMS 111435Z 19012G18KT 24/14 A3018 RMK A01 T02410144  RH  057%=      5-min Rain = 0
KDMS 111440Z 19013KT 24/14 A3019 RMK A01 T02420143  RH  057%=      5-min Rain = 0
KDMS 111445Z 19014KT 24/14 A3019 RMK A01 T02420143  RH  056%=      5-min Rain = 0
KDMS 111450Z 19015KT 24/14 A3019 RMK A01 T02420143  RH  056%=      5-min Rain = 0
KDMS 111455Z 19014KT 24/14 A3018 RMK A01 T02440142  RH  055%=      5-min Rain = 0
KDMS 111500Z 20014KT 25/14 A3018 RMK A01 T02450141  RH  054%=      5-min Rain = 0
KDMS 111505Z 19014KT 25/14 A3018 RMK A01 T02500141  RH  053%=      5-min Rain = 0
KDMS 111510Z 19015KT 25/14 A3018 RMK A01 T02520139  RH  052%=      5-min Rain = 0
KDMS 111515Z 18015KT 26/14 A3018 RMK A01 T02580138  RH  050%=      5-min Rain = 0
KDMS 111520Z 19013KT 26/14 A3018 RMK A01 T02600139  RH  049%=      5-min Rain = 0
KDMS 111525Z 19014KT 26/14 A3018 RMK A01 T02610137  RH  048%=      5-min Rain = 0
KDMS 111530Z 18014KT 26/14 A3018 RMK A01 T02570135  RH  049%=      5-min Rain = 0
KDMS 111535Z 19011G16KT 26/14 A3018 RMK A01 T02580136  RH  049%=      5-min Rain = 0
KDMS 111540Z 19013KT 26/14 A3018 RMK A01 T02610136  RH  048%=      5-min Rain = 0
KDMS 111545Z 19012KT 26/14 A3018 RMK A01 T02590135  RH  048%=      5-min Rain = 0
KDMS 111550Z 18013KT 26/14 A3018 RMK A01 T02560135  RH  049%=      5-min Rain = 0
KDMS 111555Z 19012KT 26/14 A3018 RMK A01 T02610135  RH  048%=      5-min Rain = 0
KDMS 111600Z 20012KT 26/13 A3018 RMK A01 T02640134  RH  047%=      5-min Rain = 0
KDMS 111605Z 20011KT 26/13 A3018 RMK A01 T02630134  RH  047%=      5-min Rain = 0
KDMS 111610Z 20011KT 27/14 A3018 RMK A01 T02690136  RH  046%=      5-min Rain = 0
KDMS 111615Z 19010G15KT 27/14 A3018 RMK A01 T02710136  RH  045%=      5-min Rain = 0
KDMS 111620Z 19011G16KT 27/13 A3018 RMK A01 T02720134  RH  044%=      5-min Rain = 0
KDMS 111625Z 19012KT 28/13 A3018 RMK A01 T02750133  RH  043%=      5-min Rain = 0
KDMS 111630Z 19012KT 27/13 A3018 RMK A01 T02740133  RH  043%=      5-min Rain = 0
KDMS 111635Z 19012KT 27/13 A3018 RMK A01 T02740132  RH  043%=      5-min Rain = 0
KDMS 111640Z 18012KT 28/13 A3018 RMK A01 T02800134  RH  042%=      5-min Rain = 0
KDMS 111645Z 19011G16KT 28/14 A3018 RMK A01 T02810135  RH  042%=      5-min Rain = 0
KDMS 111650Z 19011G17KT 29/13 A3017 RMK A01 T02850134  RH  041%=      5-min Rain = 0
KDMS 111655Z 20012KT 29/14 A3017 RMK A01 T02870135  RH  041%=      5-min Rain = 0
KDMS 111700Z 20012G18KT 29/14 A3017 RMK A01 T02850135  RH  041%=      5-min Rain = 0
KDMS 111705Z 18012G18KT 29/13 A3017 RMK A01 T02860132  RH  040%=      5-min Rain = 0
KDMS 111710Z 17010G16KT 29/13 A3017 RMK A01 T02850134  RH  041%=      5-min Rain = 0
KDMS 111715Z 18014KT 29/13 A3017 RMK A01 T02860130  RH  040%=      5-min Rain = 0
KDMS 111720Z 18012G17KT 29/13 A3017 RMK A01 T02890128  RH  039%=      5-min Rain = 0
KDMS 111725Z 17013G19KT 29/13 A3017 RMK A01 T02920129  RH  038%=      5-min Rain = 0
KDMS 111730Z 18013G20KT 29/13 A3017 RMK A01 T02910131  RH  039%=      5-min Rain = 0
KDMS 111735Z 19012KT 29/13 A3016 RMK A01 T02900130  RH  039%=      5-min Rain = 0
KDMS 111740Z 19012G18KT 30/13 A3016 RMK A01 T02950130  RH  038%=      5-min Rain = 0
KDMS 111745Z 18014G19KT 30/13 A3016 RMK A01 T02960131  RH  038%=      5-min Rain = 0
KDMS 111750Z 18016G22KT 30/13 A3016 RMK A01 T02970131  RH  038%=      5-min Rain = 0
KDMS 111755Z 19014G22KT 30/13 A3016 RMK A01 T02980131  RH  037%=      5-min Rain = 0
KDMS 111800Z 18016G22KT 30/13 A3016 RMK A01 T02990130  RH  037%=      5-min Rain = 0
KDMS 111805Z 18013G22KT 30/13 A3015 RMK A01 T03020131  RH  036%=      5-min Rain = 0
KDMS 111810Z 18017G24KT 31/13 A3015 RMK A01 T03070128  RH  035%=      5-min Rain = 0
KDMS 111815Z 19016G21KT 31/13 A3015 RMK A01 T03050127  RH  035%=      5-min Rain = 0
KDMS 111820Z 18014G20KT 31/13 A3015 RMK A01 T03070128  RH  035%=      5-min Rain = 0
KDMS 111825Z 18016G22KT 31/13 A3014 RMK A01 T03090125  RH  034%=      5-min Rain = 0
KDMS 111830Z 18015G23KT 31/13 A3014 RMK A01 T03080125  RH  034%=      5-min Rain = 0
KDMS 111835Z 17013G20KT 31/13 A3014 RMK A01 T03060127  RH  035%=      5-min Rain = 0
KDMS 111840Z 17015KT 31/13 A3014 RMK A01 T03110126  RH  034%=      5-min Rain = 0
KDMS 111845Z 17015G21KT 31/13 A3013 RMK A01 T03060127  RH  035%=      5-min Rain = 0
KDMS 111850Z 18015G22KT 31/13 A3013 RMK A01 T03100128  RH  034%=      5-min Rain = 0
KDMS 111855Z 17016G23KT 31/13 A3013 RMK A01 T03120128  RH  034%=      5-min Rain = 0
KDMS 111900Z 19017G23KT 31/13 A3013 RMK A01 T03110129  RH  034%=      5-min Rain = 0
KDMS 111905Z 18013G21KT 31/13 A3013 RMK A01 T03070129  RH  035%=      5-min Rain = 0
KDMS 111910Z 19013G18KT 32/13 A3012 RMK A01 T03150127  RH  033%=      5-min Rain = 0
KDMS 111915Z 18017G23KT 31/13 A3012 RMK A01 T03100126  RH  034%=      5-min Rain = 0
KDMS 111920Z 16015G21KT 32/13 A3012 RMK A01 T03150126  RH  033%=      5-min Rain = 0
KDMS 111925Z 17015KT 32/13 A3012 RMK A01 T03160129  RH  033%=      5-min Rain = 0
KDMS 111930Z 18014KT 31/13 A3012 RMK A01 T03140128  RH  033%=      5-min Rain = 0
KDMS 111935Z 20017G22KT 31/12 A3011 RMK A01 T03130124  RH  033%=      5-min Rain = 0
KDMS 111940Z 20016G23KT 32/13 A3011 RMK A01 T03160126  RH  033%=      5-min Rain = 0
KDMS 111945Z 18015G21KT 31/13 A3011 RMK A01 T03110127  RH  034%=      5-min Rain = 0
KDMS 111950Z 19015G20KT 32/13 A3011 RMK A01 T03160126  RH  032%=      5-min Rain = 0
KDMS 111955Z 19016G23KT 33/13 A3011 RMK A01 T03260128  RH  031%=      5-min Rain = 0
KDMS 112000Z 16014G20KT 32/13 A3011 RMK A01 T03220125  RH  031%=      5-min Rain = 0
KDMS 112005Z 19015G22KT 32/13 A3011 RMK A01 T03240128  RH  032%=      5-min Rain = 0
KDMS 112010Z 19016G23KT 32/13 A301 RMK A01 T03220130  RH  032%=      5-min Rain = 0
KDMS 112015Z 17015G20KT 32/13 A301 RMK A01 T03230128  RH  032%=      5-min Rain = 0
KDMS 112020Z 18017G22KT 32/13 A301 RMK A01 T03220126  RH  031%=      5-min Rain = 0
KDMS 112025Z 17013G21KT 32/13 A3009 RMK A01 T03240127  RH  031%=      5-min Rain = 0
KDMS 112030Z 16016G22KT 32/13 A3009 RMK A01 T03220126  RH  031%=      5-min Rain = 0
KDMS 112035Z 17015G23KT 32/13 A3009 RMK A01 T03210125  RH  032%=      5-min Rain = 0
KDMS 112040Z 16015G20KT 33/13 A3008 RMK A01 T03250126  RH  031%=      5-min Rain = 0
KDMS 112045Z 16019G25KT 33/13 A3008 RMK A01 T03290127  RH  030%=      5-min Rain = 0
KDMS 112050Z 17017G24KT 33/13 A3008 RMK A01 T03250125  RH  031%=      5-min Rain = 0
KDMS 112055Z 18016G23KT 33/13 A3008 RMK A01 T03270125  RH  031%=      5-min Rain = 0
KDMS 112100Z 18018G30KT 33/13 A3008 RMK A01 T03290125  RH  030%=      5-min Rain = 0
KDMS 112105Z 18017G22KT 33/13 A3007 RMK A01 T03320125  RH  030%=      5-min Rain = 0
KDMS 112110Z 15019KT 32/13 A3007 RMK A01 T03200127  RH  032%=      5-min Rain = 0
KDMS 112115Z 17017G22KT 32/13 A3007 RMK A01 T03240127  RH  031%=      5-min Rain = 0
KDMS 112120Z 16019G25KT 33/13 A3007 RMK A01 T03270125  RH  030%=      5-min Rain = 0
KDMS 112125Z 15020G25KT 32/12 A3006 RMK A01 T03190123  RH  031%=      5-min Rain = 0
KDMS 112130Z 17018G23KT 33/12 A3007 RMK A01 T03270122  RH  030%=      5-min Rain = 0
KDMS 112135Z 17019G25KT 33/12 A3007 RMK A01 T03280123  RH  030%=      5-min Rain = 0
KDMS 112140Z 15019G25KT 33/13 A3006 RMK A01 T03280126  RH  030%=      5-min Rain = 0
KDMS 112145Z 16020G27KT 33/13 A3006 RMK A01 T03250125  RH  031%=      5-min Rain = 0
KDMS 112150Z 16019G25KT 32/13 A3006 RMK A01 T03200126  RH  032%=      5-min Rain = 0
KDMS 112155Z 16017G24KT 33/13 A3006 RMK A01 T03250125  RH  031%=      5-min Rain = 0
KDMS 112200Z 18018G24KT 33/13 A3006 RMK A01 T03300125  RH  030%=      5-min Rain = 0
KDMS 112205Z 19017G22KT 33/13 A3006 RMK A01 T03250125  RH  031%=      5-min Rain = 0
KDMS 112210Z 16019G25KT 33/13 A3006 RMK A01 T03300127  RH  030%=      5-min Rain = 0
KDMS 112215Z 15018G23KT 33/13 A3006 RMK A01 T03260126  RH  031%=      5-min Rain = 0
KDMS 112220Z 16018G23KT 33/13 A3006 RMK A01 T03260127  RH  031%=      5-min Rain = 0
KDMS 112225Z 17017G25KT 33/13 A3006 RMK A01 T03310126  RH  030%=      5-min Rain = 0
KDMS 112230Z 15018KT 32/13 A3005 RMK A01 T03240125  RH  031%=      5-min Rain = 0
KDMS 112235Z 16018G24KT 33/13 A3005 RMK A01 T03250125  RH  031%=      5-min Rain = 0
KDMS 112240Z 17016G22KT 33/12 A3005 RMK A01 T03260124  RH  030%=      5-min Rain = 0
KDMS 112245Z 15019G24KT 32/13 A3005 RMK A01 T03220127  RH  032%=      5-min Rain = 0
KDMS 112250Z 16019KT 32/13 A3005 RMK A01 T03160126  RH  032%=      5-min Rain = 0
KDMS 112255Z 16017G22KT 31/13 A3005 RMK A01 T03130126  RH  033%=      5-min Rain = 0
KDMS 112300Z 15016KT 31/13 A3005 RMK A01 T03130125  RH  033%=      5-min Rain = 0
KDMS 112305Z 15017KT 31/13 A3005 RMK A01 T03100125  RH  033%=      5-min Rain = 0
KDMS 112310Z 16016G21KT 31/13 A3005 RMK A01 T03120127  RH  034%=      5-min Rain = 0
KDMS 112315Z 15017G22KT 32/13 A3005 RMK A01 T03180128  RH  033%=      5-min Rain = 0
KDMS 112320Z 15017KT 32/13 A3005 RMK A01 T03210127  RH  032%=      5-min Rain = 0
KDMS 112325Z 16014KT 32/13 A3005 RMK A01 T03220129  RH  032%=      5-min Rain = 0
KDMS 112330Z 17016KT 33/13 A3005 RMK A01 T03260128  RH  031%=      5-min Rain = 0
KDMS 112335Z 17017G23KT 33/13 A3005 RMK A01 T03270127  RH  031%=      5-min Rain = 0
KDMS 112340Z 16018G25KT 32/13 A3005 RMK A01 T03200125  RH  032%=      5-min Rain = 0
KDMS 112345Z 16018G23KT 32/12 A3005 RMK A01 T03150124  RH  032%=      5-min Rain = 0
KDMS 112350Z 17020G25KT 31/12 A3005 RMK A01 T03120124  RH  033%=      5-min Rain = 0
KDMS 112355Z 18019KT 31/13 A3006 RMK A01 T03070127  RH  035%=      5-min Rain = 0
KDMS 120000Z 18019KT 31/13 A3006 RMK A01 T03060132  RH  036%=      5-min Rain = 0
KDMS 120005Z 19017KT 30/14 A3007 RMK A01 T02970138  RH  039%=      5-min Rain = 0
KDMS 120010Z 18018G23KT 29/14 A3007 RMK A01 T02920138  RH  040%=      5-min Rain = 0
KDMS 120015Z 17019KT 30/13 A3007 RMK A01 T02960132  RH  038%=      5-min Rain = 0
KDMS 120020Z 17021KT 29/14 A3007 RMK A01 T02890140  RH  042%=      5-min Rain = 0
KDMS 120025Z 17019KT 29/14 A3007 RMK A01 T02870142  RH  043%=      5-min Rain = 0
KDMS 120030Z 17016G21KT 28/16 A3007 RMK A01 T02800157  RH  049%=      5-min Rain = 0
KDMS 120035Z 15016KT 27/17 A3007 RMK A01 T02680167  RH  056%=      5-min Rain = 0
KDMS 120040Z 15013KT 27/17 A3007 RMK A01 T02660171  RH  059%=      5-min Rain = 0
KDMS 120045Z 15010KT 28/16 A3007 RMK A01 T02750162  RH  052%=      5-min Rain = 0
KDMS 120050Z 16010KT 28/16 A3007 RMK A01 T02820158  RH  049%=      5-min Rain = 0
KDMS 120055Z 18009KT 29/16 A3007 RMK A01 T02860159  RH  048%=      5-min Rain = 0
KDMS 120100Z 18009KT 29/16 A3007 RMK A01 T02870158  RH  048%=      5-min Rain = 0
KDMS 120105Z 18009KT 29/16 A3007 RMK A01 T02860157  RH  048%=      5-min Rain = 0
KDMS 120110Z 18009KT 29/16 A3007 RMK A01 T02880157  RH  047%=      5-min Rain = 0
KDMS 120115Z 18010KT 29/16 A3007 RMK A01 T02880156  RH  047%=      5-min Rain = 0
KDMS 120120Z 18010KT 29/16 A3007 RMK A01 T02860155  RH  047%=      5-min Rain = 0
KDMS 120125Z 20010KT 29/15 A3007 RMK A01 T02870151  RH  046%=      5-min Rain = 0
KDMS 120130Z 19010KT 29/15 A3007 RMK A01 T02860146  RH  044%=      5-min Rain = 0
KDMS 120135Z 18009KT 29/14 A3007 RMK A01 T02860140  RH  042%=      5-min Rain = 0
KDMS 120140Z 17009KT 29/14 A3007 RMK A01 T02850142  RH  043%=      5-min Rain = 0
KDMS 120145Z 17008KT 28/15 A3007 RMK A01 T02810150  RH  047%=      5-min Rain = 0
KDMS 120150Z 17007KT 28/16 A3007 RMK A01 T02770156  RH  050%=      5-min Rain = 0
KDMS 120155Z 17007KT 28/16 A3008 RMK A01 T02750158  RH  051%=      5-min Rain = 0
KDMS 120200Z 19006KT 27/16 A3008 RMK A01 T02730159  RH  052%=      5-min Rain = 0
KDMS 120205Z 19006KT 27/16 A3009 RMK A01 T02710163  RH  054%=      5-min Rain = 0
KDMS 120210Z 16006KT 27/16 A3009 RMK A01 T02670164  RH  056%=      5-min Rain = 0
KDMS 120215Z 14006KT 27/16 A3009 RMK A01 T02670162  RH  055%=      5-min Rain = 0
KDMS 120220Z 14008KT 27/15 A3009 RMK A01 T02660154  RH  053%=      5-min Rain = 0
KDMS 120225Z 15009KT 27/15 A3009 RMK A01 T02650150  RH  052%=      5-min Rain = 0
KDMS 120230Z 15009KT 26/15 A3009 RMK A01 T02640148  RH  051%=      5-min Rain = 0
KDMS 120235Z 15010KT 26/15 A3009 RMK A01 T02640146  RH  051%=      5-min Rain = 0
KDMS 120240Z 15010KT 26/15 A3009 RMK A01 T02630146  RH  051%=      5-min Rain = 0
KDMS 120245Z 15011KT 26/15 A3009 RMK A01 T02630145  RH  050%=      5-min Rain = 0
KDMS 120250Z 14010KT 26/14 A3009 RMK A01 T02620144  RH  050%=      5-min Rain = 0
KDMS 120255Z 13009KT 26/14 A301 RMK A01 T02620143  RH  050%=      5-min Rain = 0
KDMS 120300Z 13010KT 26/14 A301 RMK A01 T02610143  RH  050%=      5-min Rain = 0
KDMS 120305Z 14010KT 26/14 A301 RMK A01 T02600143  RH  051%=      5-min Rain = 0
KDMS 120310Z 14011KT 26/14 A301 RMK A01 T02590143  RH  051%=      5-min Rain = 0
KDMS 120315Z 15009KT 26/14 A301 RMK A01 T02600143  RH  051%=      5-min Rain = 0
KDMS 120320Z 20010KT 26/15 A3011 RMK A01 T02570147  RH  053%=      5-min Rain = 0
KDMS 120325Z 20014G22KT 26/14 A3011 RMK A01 T02600142  RH  050%=      5-min Rain = 0
KDMS 120330Z 14012G20KT 27/14 A3011 RMK A01 T02650141  RH  049%=      5-min Rain = 0
KDMS 120335Z 16011G16KT 27/14 A3011 RMK A01 T02650141  RH  048%=      5-min Rain = 0
KDMS 120340Z 19007KT 26/14 A3012 RMK A01 T02620142  RH  050%=      5-min Rain = 0
KDMS 120345Z 20007KT 26/15 A3013 RMK A01 T02610145  RH  051%=      5-min Rain = 0
KDMS 120350Z 19007KT 26/15 A3013 RMK A01 T02600145  RH  051%=      5-min Rain = 0
KDMS 120355Z 16007KT 26/14 A3013 RMK A01 T02600144  RH  051%=      5-min Rain = 0
KDMS 120400Z 19005KT 26/14 A3013 RMK A01 T02610144  RH  051%=      5-min Rain = 0
KDMS 120405Z 18006KT 26/15 A3013 RMK A01 T02580145  RH  052%=      5-min Rain = 0
KDMS 120410Z 18005KT 26/15 A3013 RMK A01 T02590145  RH  051%=      5-min Rain = 0
KDMS 120415Z 20003KT 26/15 A3013 RMK A01 T02560151  RH  055%=      5-min Rain = 0
KDMS 120420Z 22003KT 25/16 A3013 RMK A01 T02520159  RH  059%=      5-min Rain = 0
KDMS 120425Z 24004KT 25/17 A3013 RMK A01 T02470167  RH  064%=      5-min Rain = 0
KDMS 120430Z 22006KT 25/16 A3014 RMK A01 T02500158  RH  059%=      5-min Rain = 0
KDMS 120435Z 22004KT 25/16 A3014 RMK A01 T02480161  RH  061%=      5-min Rain = 0
KDMS 120440Z 22003KT 25/16 A3014 RMK A01 T02450164  RH  063%=      5-min Rain = 0
KDMS 120445Z 23005G11KT 24/17 A3014 RMK A01 T02420167  RH  066%=      5-min Rain = 0
KDMS 120450Z 21010G15KT 24/16 A3015 RMK A01 T02420160  RH  063%=      5-min Rain = 0
KDMS 120455Z 22010KT 24/16 A3015 RMK A01 T02390160  RH  064%=      5-min Rain = 0

Page generated in 0.0095 seconds.